Time;durP1;ratioP1;P1;durP2;ratioP2;P2;SDS_P1;SDS_P2;PMS_P1;PMS_P2;Temp;Humidity;BMP_temperature;BMP_pressure;BME280_temperature;BME280_humidity;BME280_pressure;Samples;Min_cycle;Max_cycle;Signal;HPM_P1;HPM_P2
2022/11/27 00:00:47;;;;;;;85.97;42.40;;;;;;;5.30;84.77;101653.30;2220056;80;27715;-73
2022/11/27 00:03:50;;;;;;;95.72;42.25;;;;;;;5.28;84.83;101658.62;2219651;80;27677;-73
2022/11/27 00:06:52;;;;;;;93.52;42.05;;;;;;;5.32;84.90;101663.47;2219646;80;31058;-73
2022/11/27 00:09:53;;;;;;;96.17;41.90;;;;;;;5.33;84.95;101667.44;2219834;80;32952;-74
2022/11/27 00:12:54;;;;;;;86.20;42.27;;;;;;;5.36;84.92;101674.53;2220137;80;29314;-74
2022/11/27 00:15:56;;;;;;;99.62;41.63;;;;;;;5.37;84.92;101670.98;2219979;80;27724;-73
2022/11/27 00:18:58;;;;;;;93.10;42.17;;;;;;;5.37;84.88;101672.31;2219489;80;28708;-74
2022/11/27 00:21:59;;;;;;;91.78;43.28;;;;;;;5.38;84.89;101671.39;2213921;80;31038;-74
2022/11/27 00:25:01;;;;;;;96.63;42.13;;;;;;;5.42;85.10;101666.50;2213925;80;33793;-73
2022/11/27 00:28:02;;;;;;;86.42;40.10;;;;;;;5.45;85.00;101666.95;2214104;80;29667;-74
2022/11/27 00:31:15;;;;;;;93.92;41.48;;;;;;;5.42;84.81;101665.62;2214110;80;27694;-73
2022/11/27 00:34:16;;;;;;;91.32;41.92;;;;;;;5.42;84.86;101674.94;2214160;80;29481;-73
2022/11/27 00:37:18;;;;;;;106.37;43.80;;;;;;;5.40;84.80;101678.91;2213982;80;31825;-73
2022/11/27 00:40:19;;;;;;;91.25;41.40;;;;;;;5.44;84.99;101686.44;2215161;80;33045;-73
2022/11/27 00:43:21;;;;;;;92.72;40.78;;;;;;;5.45;84.93;101684.22;2189318;81;29370;-73
2022/11/27 00:46:28;;;;;;;85.30;39.90;;;;;;;5.48;85.03;101686.41;2189247;81;28295;-73
2022/11/27 00:49:31;;;;;;;95.10;40.45;;;;;;;5.52;85.10;101689.92;2188863;80;29528;-73
2022/11/27 00:52:32;;;;;;;97.88;41.55;;;;;;;5.55;85.00;101684.59;2189115;81;31798;-73
2022/11/27 00:55:33;;;;;;;80.92;37.10;;;;;;;5.58;85.06;101683.67;2188994;81;32968;-73
2022/11/27 00:58:35;;;;;;;86.70;39.60;;;;;;;5.54;84.72;101684.61;2189084;81;29359;-73
2022/11/27 01:01:40;;;;;;;76.05;37.40;;;;;;;5.53;84.89;101683.71;2189286;80;27739;-73
2022/11/27 01:04:47;;;;;;;74.17;36.00;;;;;;;5.56;84.95;101683.70;2189107;81;29600;-73
2022/11/27 01:07:48;;;;;;;80.03;37.03;;;;;;;5.56;84.98;101678.38;2189113;81;31034;-73
2022/11/27 01:10:54;;;;;;;79.97;37.33;;;;;;;5.57;84.95;101676.16;2189144;81;34103;-73
2022/11/27 01:13:59;;;;;;;77.62;36.73;;;;;;;5.58;84.83;101673.05;2189048;80;29251;-73
2022/11/27 01:17:04;;;;;;;81.70;37.70;;;;;;;5.56;84.73;101674.39;2188963;80;27572;-74
2022/11/27 01:20:07;;;;;;;62.55;29.50;;;;;;;5.54;84.72;101680.16;2186851;80;28695;-73
2022/11/27 01:23:08;;;;;;;78.95;37.48;;;;;;;5.55;84.79;101682.36;2181411;81;31175;-73
2022/11/27 01:26:11;;;;;;;75.03;34.23;;;;;;;5.56;84.93;101679.71;2181752;81;34120;-73
2022/11/27 01:29:12;;;;;;;80.53;36.00;;;;;;;5.56;84.85;101676.16;2181632;81;29360;-73
2022/11/27 01:32:14;;;;;;;76.92;37.70;;;;;;;5.55;84.72;101681.03;2181881;81;27620;-73
2022/11/27 01:35:15;;;;;;;75.87;36.25;;;;;;;5.52;84.60;101682.41;2181825;81;29425;-73
2022/11/27 01:38:16;;;;;;;71.75;37.05;;;;;;;5.47;84.69;101668.69;2181851;81;30989;-73
2022/11/27 01:41:24;;;;;;;85.22;37.45;;;;;;;5.48;84.77;101672.22;2178995;81;32864;-73
2022/11/27 01:44:31;;;;;;;79.25;37.83;;;;;;;5.48;84.78;101680.19;2177096;81;30107;-73
2022/11/27 01:47:41;;;;;;;83.70;39.60;;;;;;;5.46;84.71;101669.58;2177420;81;27706;-72
2022/11/27 01:50:42;;;;;;;85.40;37.78;;;;;;;5.46;84.78;101668.25;2176795;81;29515;-72
2022/11/27 01:53:43;;;;;;;86.75;39.63;;;;;;;5.44;84.72;101666.51;2215277;80;31049;-72
2022/11/27 01:56:49;;;;;;;94.13;40.70;;;;;;;5.41;84.70;101675.82;2219981;80;33723;-73
2022/11/27 01:59:51;;;;;;;82.53;40.15;;;;;;;5.39;84.80;101672.28;2220006;80;29337;-73
2022/11/27 02:02:53;;;;;;;88.35;40.63;;;;;;;5.42;85.00;101673.14;2220065;80;27658;-73
2022/11/27 02:05:54;;;;;;;84.55;39.35;;;;;;;5.43;84.97;101672.71;2219958;80;28640;-73
2022/11/27 02:08:56;;;;;;;94.72;39.95;;;;;;;5.43;84.97;101673.58;2219834;80;31826;-73
2022/11/27 02:12:08;;;;;;;85.92;41.18;;;;;;;5.45;85.00;101674.92;2219643;80;32953;-73
2022/11/27 02:15:38;;;;;;;93.70;40.83;;;;;;;5.48;85.19;101673.55;2219853;80;29329;-74
2022/11/27 02:18:51;;;;;;;92.27;41.28;;;;;;;5.53;85.24;101678.39;2220128;80;27724;-73
2022/11/27 02:22:06;;;;;;;89.60;40.38;;;;;;;5.55;85.21;101672.62;2111183;84;28677;-74
2022/11/27 02:25:42;;;;;;;92.30;41.48;;;;;;;5.56;85.16;101673.06;2073737;84;31878;-74
2022/11/27 02:29:07;;;;;;;84.05;40.20;;;;;;;5.59;85.21;101671.72;2074146;85;32981;-74
2022/11/27 02:32:22;;;;;;;60.65;32.63;;;;;;;5.59;85.09;101672.16;2074009;85;29326;-75
2022/11/27 02:35:50;;;;;;;84.50;40.73;;;;;;;5.58;85.08;101677.93;2073938;85;27771;-74
2022/11/27 02:39:11;;;;;;;87.82;40.83;;;;;;;5.59;85.10;101674.81;2073881;85;28672;-74
2022/11/27 02:42:17;;;;;;;86.32;39.85;;;;;;;5.57;85.08;101661.54;2073549;85;31308;-74
2022/11/27 02:45:27;;;;;;;91.78;40.15;;;;;;;5.58;85.12;101664.64;2073801;85;33350;-74
2022/11/27 02:48:34;;;;;;;90.20;42.88;;;;;;;5.59;85.11;101658.44;2073870;85;29318;-74
2022/11/27 02:51:49;;;;;;;91.55;39.45;;;;;;;5.59;85.15;101662.84;2073816;85;27652;-74
2022/11/27 02:54:55;;;;;;;90.30;40.58;;;;;;;5.59;85.10;101655.77;2074205;83;28697;-74
2022/11/27 02:57:58;;;;;;;89.07;41.37;;;;;;;5.60;85.11;101655.31;2086275;82;31902;-75
2022/11/27 03:01:00;;;;;;;90.95;42.00;;;;;;;5.60;85.06;101649.56;2164835;80;33143;-74
2022/11/27 03:04:06;;;;;;;83.95;41.10;;;;;;;5.59;85.04;101646.90;2220859;79;29333;-75
2022/11/27 03:07:13;;;;;;;91.22;41.50;;;;;;;5.59;85.14;101653.55;2205427;80;27646;-74
2022/11/27 03:10:25;;;;;;;93.40;40.90;;;;;;;5.58;85.09;101661.98;2205169;80;29461;-74
2022/11/27 03:13:28;;;;;;;80.40;39.95;;;;;;;5.58;85.10;101665.06;2205439;80;31064;-74
2022/11/27 03:16:38;;;;;;;85.07;40.58;;;;;;;5.59;85.17;101666.83;2205187;80;32957;-74
2022/11/27 03:19:50;;;;;;;82.75;39.25;;;;;;;5.60;85.17;101665.94;2224156;80;29395;-74
2022/11/27 03:22:55;;;;;;;80.05;39.85;;;;;;;5.62;85.29;101663.73;2223052;79;28183;-74
2022/11/27 03:25:56;;;;;;;88.87;39.48;;;;;;;5.64;85.31;101663.71;2224377;79;28687;-74
2022/11/27 03:28:59;;;;;;;82.80;40.20;;;;;;;5.66;85.37;101665.91;2224201;80;31036;-74
2022/11/27 03:32:01;;;;;;;85.57;40.83;;;;;;;5.69;85.40;101663.23;2224314;80;33381;-75
2022/11/27 03:35:05;;;;;;;89.20;43.90;;;;;;;5.72;85.45;101655.67;2224239;79;29334;-75
2022/11/27 03:38:07;;;;;;;93.82;44.03;;;;;;;5.74;85.44;101654.76;2224508;79;28129;-74
2022/11/27 03:41:25;;;;;;;95.55;43.30;;;;;;;5.77;85.50;101653.87;2223920;80;28731;-75
2022/11/27 03:45:20;;;;;;;84.47;39.18;;;;;;;5.79;85.38;101657.41;2203786;80;31206;-74
2022/11/27 03:48:29;;;;;;;95.30;44.65;;;;;;;5.79;85.29;101656.08;2205394;80;32965;-74
2022/11/27 03:51:40;;;;;;;103.02;42.70;;;;;;;5.80;85.40;101651.16;2184859;80;27831;-75
2022/11/27 03:55:06;;;;;;;87.05;41.05;;;;;;;5.81;85.43;101647.61;2185690;80;27518;-75
2022/11/27 03:58:12;;;;;;;91.08;41.92;;;;;;;5.82;85.34;101640.53;2205716;80;28699;-74
2022/11/27 04:01:17;;;;;;;93.65;42.40;;;;;;;5.81;85.28;101630.33;2205260;80;31026;-75
2022/11/27 04:04:18;;;;;;;94.33;42.83;;;;;;;5.79;85.34;101626.83;2205362;80;33774;-74
2022/11/27 04:07:19;;;;;;;85.97;42.23;;;;;;;5.80;85.33;101625.91;2224093;79;29377;-75
2022/11/27 04:10:21;;;;;;;85.55;39.92;;;;;;;5.80;85.30;101628.56;2224328;79;27657;-75
2022/11/27 04:13:22;;;;;;;85.70;40.15;;;;;;;5.80;85.28;101623.24;2224103;79;28637;-73
2022/11/27 04:16:23;;;;;;;90.20;40.80;;;;;;;5.78;85.26;101625.06;2224149;80;31796;-73
2022/11/27 04:19:24;;;;;;;94.28;42.78;;;;;;;5.78;85.33;101635.23;2224075;79;32925;-73
2022/11/27 04:22:26;;;;;;;85.90;40.58;;;;;;;5.80;85.23;101634.34;2220671;79;30127;-73
2022/11/27 04:25:27;;;;;;;87.33;39.58;;;;;;;5.78;85.23;101631.70;2220003;80;27669;-73
2022/11/27 04:28:29;;;;;;;98.03;45.70;;;;;;;5.78;85.31;101629.91;2220047;80;29476;-72
2022/11/27 04:31:30;;;;;;;96.70;42.70;;;;;;;5.80;85.34;101621.05;2219917;80;31022;-72
2022/11/27 04:34:32;;;;;;;93.15;42.48;;;;;;;5.81;85.28;101621.48;2219990;80;33002;-73
2022/11/27 04:37:33;;;;;;;94.28;43.78;;;;;;;5.82;85.45;101617.93;2220021;80;29300;-72
2022/11/27 04:40:35;;;;;;;96.57;45.03;;;;;;;5.83;85.40;101611.72;2219610;80;27712;-72
2022/11/27 04:43:36;;;;;;;113.22;44.85;;;;;;;5.82;85.29;101604.17;2220044;80;29460;-73
2022/11/27 04:46:37;;;;;;;110.22;46.50;;;;;;;5.80;85.27;101607.28;2224675;80;31016;-73
2022/11/27 04:49:38;;;;;;;109.17;43.38;;;;;;;5.79;85.24;101608.21;2225180;80;32955;-72
2022/11/27 04:52:39;;;;;;;108.95;43.75;;;;;;;5.77;85.20;101610.86;2225150;80;30138;-72
2022/11/27 04:55:41;;;;;;;124.00;48.35;;;;;;;5.76;85.23;101605.11;2182015;81;27655;-73
2022/11/27 04:58:42;;;;;;;112.32;45.88;;;;;;;5.74;85.32;101592.27;2181972;81;28749;-72
2022/11/27 05:01:43;;;;;;;118.97;45.38;;;;;;;5.75;85.39;101599.81;2181924;81;30994;-72
2022/11/27 05:04:47;;;;;;;107.30;42.50;;;;;;;5.71;85.22;101594.95;2181745;81;32421;-73
2022/11/27 05:07:47;;;;;;;98.82;42.58;;;;;;;5.69;85.30;101602.09;2181774;81;29343;-73
2022/11/27 05:11:02;;;;;;;109.87;43.25;;;;;;;5.69;85.43;101602.52;2182008;81;27655;-73
2022/11/27 05:14:21;;;;;;;105.80;42.30;;;;;;;5.71;85.46;101593.63;2182130;81;29622;-73
2022/11/27 05:17:19;;;;;;;108.00;45.60;;;;;;;5.71;85.32;101596.74;2181295;81;31054;-72
2022/11/27 05:20:20;;;;;;;112.22;42.35;;;;;;;5.67;85.37;101598.98;2181987;81;33746;-73
2022/11/27 05:23:21;;;;;;;127.00;43.42;;;;;;;5.65;85.38;101610.08;2188572;79;29349;-72
2022/11/27 05:26:23;;;;;;;100.27;40.80;;;;;;;5.62;85.36;101606.58;2189463;81;27617;-73
2022/11/27 05:29:25;;;;;;;106.75;42.40;;;;;;;5.62;85.51;101613.22;2189007;80;29617;-72
2022/11/27 05:32:26;;;;;;;93.55;44.55;;;;;;;5.65;85.57;101626.92;2189304;81;31069;-74
2022/11/27 05:35:27;;;;;;;137.22;43.52;;;;;;;5.67;85.66;101626.91;2188985;81;33020;-73
2022/11/27 05:38:28;;;;;;;99.22;43.45;;;;;;;5.70;85.67;101629.11;2189264;81;29320;-74
2022/11/27 05:41:29;;;;;;;125.92;54.40;;;;;;;5.72;85.70;101627.76;2189381;80;27694;-74
2022/11/27 05:44:31;;;;;;;117.35;49.77;;;;;;;5.73;85.64;101633.52;2189363;81;28632;-74
2022/11/27 05:47:32;;;;;;;95.65;43.23;;;;;;;5.71;85.59;101633.97;2189145;81;31000;-75
2022/11/27 05:50:33;;;;;;;83.37;38.00;;;;;;;5.69;85.44;101635.75;2189012;81;33711;-75
2022/11/27 05:53:35;;;;;;;87.57;38.23;;;;;;;5.70;85.63;101639.75;2189098;81;29361;-75
2022/11/27 05:56:36;;;;;;;117.40;43.38;;;;;;;5.73;85.67;101646.80;2189132;81;27699;-76
2022/11/27 05:59:37;;;;;;;115.05;51.77;;;;;;;5.74;85.68;101637.47;2189140;81;28678;-74
2022/11/27 06:02:38;;;;;;;127.10;44.55;;;;;;;5.74;85.53;101633.95;2189221;81;31797;-75
2022/11/27 06:05:40;;;;;;;148.68;43.80;;;;;;;5.72;85.48;101629.95;2176008;81;33625;-74
2022/11/27 06:08:42;;;;;;;148.45;41.37;;;;;;;5.68;85.43;101630.90;2188800;81;29638;-74
2022/11/27 06:11:43;;;;;;;109.97;40.95;;;;;;;5.65;85.32;101640.65;2189341;81;27594;-74
2022/11/27 06:14:44;;;;;;;121.28;44.63;;;;;;;5.62;85.45;101650.87;2189220;81;29547;-74
2022/11/27 06:17:50;;;;;;;99.58;41.60;;;;;;;5.60;85.43;101655.31;2189153;80;31006;-74
2022/11/27 06:20:51;;;;;;;91.95;43.05;;;;;;;5.56;85.38;101660.20;2189279;80;32953;-74
2022/11/27 06:23:55;;;;;;;139.28;44.90;;;;;;;5.52;85.49;101658.48;2189433;81;29476;-75
2022/11/27 06:26:56;;;;;;;123.07;47.25;;;;;;;5.54;85.63;101659.36;2189540;81;27670;-74
2022/11/27 06:29:57;;;;;;;123.72;46.10;;;;;;;5.57;85.77;101660.64;2189446;81;28643;-74
2022/11/27 06:32:58;;;;;;;127.45;41.48;;;;;;;5.56;85.73;101663.77;2189781;80;31830;-74
2022/11/27 06:36:01;;;;;;;165.12;55.20;;;;;;;5.58;85.65;101664.64;2189546;81;32948;-74
2022/11/27 06:39:05;;;;;;;211.28;78.37;;;;;;;5.55;85.60;101662.00;2189448;81;29340;-74
2022/11/27 06:42:06;;;;;;;153.20;59.23;;;;;;;5.54;85.58;101664.22;2189821;81;27683;-75
2022/11/27 06:45:09;;;;;;;154.72;58.13;;;;;;;5.53;85.62;101663.78;2189442;81;29474;-74
2022/11/27 06:48:12;;;;;;;108.75;39.83;;;;;;;5.54;85.74;101666.00;2188948;80;30483;-74
2022/11/27 06:51:20;;;;;;;138.50;49.58;;;;;;;5.56;85.83;101664.19;2189677;80;32955;-73
2022/11/27 06:54:24;;;;;;;121.50;40.20;;;;;;;5.54;85.66;101660.23;2189137;81;30210;-74
2022/11/27 06:57:25;;;;;;;84.32;37.13;;;;;;;5.53;85.72;101650.48;2189600;80;27616;-74
2022/11/27 07:00:26;;;;;;;84.55;37.53;;;;;;;5.55;85.77;101656.68;2189614;80;28674;-74
2022/11/27 07:03:28;;;;;;;91.85;37.00;;;;;;;5.57;85.90;101651.34;2191242;80;31010;-75
2022/11/27 07:06:29;;;;;;;87.55;38.05;;;;;;;5.61;85.86;101654.42;2191631;81;32931;-74
2022/11/27 07:09:30;;;;;;;75.42;34.43;;;;;;;5.62;85.84;101665.06;2191254;81;29433;-74
2022/11/27 07:12:31;;;;;;;78.65;33.35;;;;;;;5.67;85.97;101666.35;2191794;81;27745;-75
2022/11/27 07:15:33;;;;;;;91.55;38.88;;;;;;;5.73;86.00;101666.75;2191586;81;29433;-74
2022/11/27 07:18:39;;;;;;;84.83;38.25;;;;;;;5.76;85.97;101664.94;2191534;81;31990;-74
2022/11/27 07:21:40;;;;;;;81.92;37.73;;;;;;;5.79;85.86;101666.71;2195160;78;32996;-73
2022/11/27 07:24:42;;;;;;;73.92;34.83;;;;;;;5.82;85.81;101664.00;2214212;80;29381;-73
2022/11/27 07:27:43;;;;;;;71.95;34.20;;;;;;;5.86;85.91;101659.11;2214318;80;27583;-74
2022/11/27 07:30:44;;;;;;;94.07;47.03;;;;;;;5.88;85.80;101661.73;2207513;80;28639;-74
2022/11/27 07:33:46;;;;;;;76.12;35.10;;;;;;;5.92;85.80;101658.17;2140157;83;31021;-74
2022/11/27 07:36:47;;;;;;;86.17;38.63;;;;;;;5.97;85.81;101659.45;2139927;83;32958;-74
2022/11/27 07:39:48;;;;;;;87.62;38.65;;;;;;;5.98;85.77;101654.56;2139973;82;29330;-73
2022/11/27 07:42:49;;;;;;;81.12;38.35;;;;;;;6.02;85.92;101650.59;2140153;83;27697;-74
2022/11/27 07:45:51;;;;;;;74.45;35.78;;;;;;;6.02;85.57;101647.94;2156237;82;28639;-74
2022/11/27 07:48:52;;;;;;;90.20;41.85;;;;;;;6.03;85.67;101637.73;2156192;82;31913;-74
2022/11/27 07:51:53;;;;;;;84.58;40.65;;;;;;;6.06;85.67;101643.46;2218744;80;32339;-74
2022/11/27 07:54:54;;;;;;;86.15;38.78;;;;;;;6.11;85.84;101638.98;2218823;80;29310;-74
2022/11/27 07:57:56;;;;;;;85.10;40.08;;;;;;;6.17;85.77;101645.56;2189233;81;27707;-73
2022/11/27 08:00:57;;;;;;;77.78;34.53;;;;;;;6.15;85.34;101645.16;2189025;81;28177;-74
2022/11/27 08:03:58;;;;;;;75.28;34.85;;;;;;;6.14;85.43;101642.06;2188716;81;30986;-73
2022/11/27 08:07:00;;;;;;;75.25;34.05;;;;;;;6.19;85.67;101640.25;2188984;80;34062;-74
2022/11/27 08:10:01;;;;;;;75.90;31.48;;;;;;;6.22;85.56;101637.09;2189073;81;30169;-74
2022/11/27 08:13:03;;;;;;;69.90;32.00;;;;;;;6.26;85.54;101636.61;2189191;81;27714;-75
2022/11/27 08:16:05;;;;;;;79.32;36.13;;;;;;;6.27;85.37;101641.03;2189026;81;28654;-76
2022/11/27 08:19:06;;;;;;;85.22;41.02;;;;;;;6.30;85.43;101634.79;2188839;80;31255;-75
2022/11/27 08:22:14;;;;;;;85.67;38.25;;;;;;;6.35;85.52;101642.28;2188951;81;33012;-73
2022/11/27 08:25:15;;;;;;;74.35;34.58;;;;;;;6.42;85.58;101639.11;2189424;81;30206;-74
2022/11/27 08:28:16;;;;;;;84.25;37.17;;;;;;;6.49;85.57;101646.14;2189328;81;27735;-74
2022/11/27 08:31:19;;;;;;;93.30;41.65;;;;;;;6.54;85.38;101650.95;2189841;81;29428;-74
2022/11/27 08:34:21;;;;;;;84.32;39.15;;;;;;;6.57;85.25;101652.25;2190556;81;31691;-74
2022/11/27 08:37:26;;;;;;;85.97;41.65;;;;;;;6.54;85.11;101646.52;2191388;81;33715;-75
2022/11/27 08:40:26;;;;;;;69.03;34.85;;;;;;;6.57;85.07;101647.39;2191526;81;29348;-74
2022/11/27 08:43:28;;;;;;;70.45;34.10;;;;;;;6.61;85.07;101645.13;2191549;81;27600;-75
2022/11/27 08:46:30;;;;;;;64.32;31.95;;;;;;;6.64;85.06;101647.30;2191471;81;28625;-75
2022/11/27 08:49:31;;;;;;;65.83;32.63;;;;;;;6.62;84.66;101646.44;2191461;81;31776;-77
2022/11/27 08:52:32;;;;;;;71.90;32.53;;;;;;;6.60;84.70;101646.90;2191383;81;32947;-75
2022/11/27 08:55:33;;;;;;;70.45;30.62;;;;;;;6.62;84.91;101646.44;2191236;81;29394;-74
2022/11/27 08:58:35;;;;;;;62.00;30.45;;;;;;;6.67;84.81;101649.03;2191566;81;28295;-75
2022/11/27 09:01:36;;;;;;;73.62;33.05;;;;;;;6.73;85.00;101648.08;2191435;81;29495;-74
2022/11/27 09:04:38;;;;;;;72.60;32.25;;;;;;;6.77;85.00;101652.05;2191517;81;31046;-73
2022/11/27 09:07:40;;;;;;;57.25;26.90;;;;;;;6.83;84.90;101653.28;2191544;81;33777;-74
2022/11/27 09:10:44;;;;;;;;;;;;;;;6.83;84.68;101652.41;2193737;81;30231;-74
2022/11/27 09:13:46;;;;;;;66.50;32.90;;;;;;;6.89;84.83;101646.99;2191538;81;27993;-75
2022/11/27 09:16:47;;;;;;;64.53;30.15;;;;;;;6.96;84.93;101645.12;2191401;81;29471;-75
2022/11/27 09:19:49;;;;;;;62.73;28.83;;;;;;;7.01;84.87;101637.97;2191363;81;31029;-74
2022/11/27 09:22:50;;;;;;;56.33;29.20;;;;;;;7.06;84.78;101634.80;2164799;81;33008;-74
2022/11/27 09:25:51;;;;;;;61.48;29.18;;;;;;;7.11;84.61;101635.62;2219800;80;29429;-74
2022/11/27 09:28:54;;;;;;;60.25;28.50;;;;;;;7.13;84.59;101644.45;2219937;80;27712;-73
2022/11/27 09:31:55;;;;;;;61.08;28.92;;;;;;;7.21;84.78;101644.35;2217688;80;28651;-73
2022/11/27 09:34:56;;;;;;;64.62;30.52;;;;;;;7.23;84.39;101645.21;2201831;80;31012;-73
2022/11/27 09:37:58;;;;;;;51.63;24.98;;;;;;;7.22;84.35;101638.12;2137631;83;33788;-74
2022/11/27 09:41:11;;;;;;;48.13;27.25;;;;;;;7.27;84.33;101634.08;2219593;80;29327;-74
2022/11/27 09:44:32;;;;;;;48.38;25.12;;;;;;;7.33;84.61;101627.31;2219845;80;27645;-73
2022/11/27 09:47:45;;;;;;;46.53;25.25;;;;;;;7.40;84.37;101629.42;2220046;80;28668;-73
2022/11/27 09:50:49;;;;;;;41.48;22.73;;;;;;;7.43;84.21;101619.63;2219233;80;31035;-72
2022/11/27 09:53:59;;;;;;;40.63;22.10;;;;;;;7.47;83.85;101616.45;2193198;80;33176;-73
2022/11/27 09:57:01;;;;;;;42.45;23.83;;;;;;;7.51;84.04;101614.61;2199082;80;29316;-73
2022/11/27 10:00:08;;;;;;;49.88;26.50;;;;;;;7.54;83.82;101618.56;2133053;82;27677;-73
2022/11/27 10:03:19;;;;;;;49.08;26.62;;;;;;;7.47;83.35;101609.78;2157491;82;28698;-72
2022/11/27 10:06:44;;;;;;;49.08;28.05;;;;;;;7.46;83.20;101605.34;2133628;82;30548;-72
2022/11/27 10:09:57;;;;;;;37.30;22.07;;;;;;;7.45;83.67;101595.13;2157787;82;32975;-73
2022/11/27 10:13:19;;;;;;;45.43;25.35;;;;;;;7.58;83.75;101591.81;2158094;81;29340;-73
2022/11/27 10:16:39;;;;;;;42.98;24.60;;;;;;;7.67;83.40;101591.25;2157962;82;28198;-72
2022/11/27 10:20:13;;;;;;;32.30;21.00;;;;;;;7.67;83.05;101581.45;2134610;83;28692;-67
2022/11/27 10:23:52;;;;;;;34.92;21.10;;;;;;;7.71;83.02;101574.27;2157802;82;31027;-68
2022/11/27 10:26:57;;;;;;;38.08;22.27;;;;;;;7.66;82.36;101569.02;2181859;81;33650;-71
2022/11/27 10:30:00;;;;;;;35.58;22.87;;;;;;;7.57;82.70;101569.19;2181674;81;29319;-69
2022/11/27 10:33:03;;;;;;;34.05;22.17;;;;;;;7.56;82.67;101558.95;2166597;81;27795;-70
2022/11/27 10:36:09;;;;;;;41.88;24.30;;;;;;;7.52;82.37;101563.03;2181797;81;29495;-71
2022/11/27 10:39:39;;;;;;;40.15;24.37;;;;;;;7.43;82.14;101566.30;2182202;81;31017;-72
2022/11/27 10:43:07;;;;;;;40.73;24.92;;;;;;;7.33;82.36;101563.33;2181632;81;33824;-71
2022/11/27 10:46:20;;;;;;;36.35;24.20;;;;;;;7.35;82.95;101569.52;2141144;83;29334;-71
2022/11/27 10:49:21;;;;;;;33.73;21.68;;;;;;;7.47;83.46;101559.13;2141454;83;27956;-71
2022/11/27 10:52:23;;;;;;;30.82;19.42;;;;;;;7.68;83.57;101554.34;2137865;83;28626;-71
2022/11/27 10:55:58;;;;;;;31.27;19.35;;;;;;;7.80;83.19;101550.55;2135848;83;31087;-70
2022/11/27 10:59:03;;;;;;;31.10;20.23;;;;;;;7.90;82.62;101550.83;2136252;83;33716;-70
2022/11/27 11:02:07;;;;;;;33.98;20.43;;;;;;;7.94;82.49;101543.20;2084881;85;29329;-70
2022/11/27 11:05:21;;;;;;;29.80;19.73;;;;;;;8.00;82.72;101543.06;2048670;86;28221;-72
2022/11/27 11:08:25;;;;;;;31.52;21.00;;;;;;;8.10;82.59;101547.78;2084646;85;28849;-71
2022/11/27 11:11:26;;;;;;;31.17;19.98;;;;;;;8.10;82.05;101547.78;2048577;86;31038;-72
2022/11/27 11:14:28;;;;;;;30.05;20.15;;;;;;;8.10;81.86;101538.91;2084368;85;33023;-72
2022/11/27 11:17:33;;;;;;;26.68;18.75;;;;;;;8.09;81.94;101538.02;2048526;86;29497;-72
2022/11/27 11:20:35;;;;;;;31.35;20.75;;;;;;;8.10;81.46;101534.44;2085594;84;28183;-72
2022/11/27 11:23:41;;;;;;;27.87;18.87;;;;;;;8.15;81.92;101536.56;2172334;79;28647;-72
2022/11/27 11:27:02;;;;;;;25.25;16.90;;;;;;;8.18;81.32;101528.51;2131044;82;31088;-72
2022/11/27 11:30:07;;;;;;;28.75;19.20;;;;;;;8.20;81.21;101530.66;2153884;81;33021;-73
2022/11/27 11:33:12;;;;;;;30.82;18.45;;;;;;;8.28;81.58;101534.98;2153540;82;29326;-74
2022/11/27 11:36:17;;;;;;;33.60;20.32;;;;;;;8.39;81.48;101530.77;2153916;82;27669;-73
2022/11/27 11:39:25;;;;;;;28.47;18.32;;;;;;;8.43;81.25;101530.66;2153476;82;29948;-74
2022/11/27 11:42:32;;;;;;;29.52;19.25;;;;;;;8.47;81.00;101523.45;2152599;82;28541;-73
2022/11/27 11:45:34;;;;;;;;;;;;;;;8.54;81.02;101513.55;2156153;82;33213;-73
2022/11/27 11:48:37;;;;;;;31.33;21.07;;;;;;;8.59;81.03;101513.91;2173570;81;29975;-72
2022/11/27 11:52:06;;;;;;;33.53;21.35;;;;;;;8.60;80.85;101511.66;2159708;80;27683;-75
2022/11/27 11:55:19;;;;;;;35.92;21.97;;;;;;;8.60;80.76;101514.33;2117390;84;28956;-72
2022/11/27 11:58:43;;;;;;;32.08;20.65;;;;;;;8.56;80.25;101504.61;2117527;84;31910;-73
2022/11/27 12:01:55;;;;;;;32.10;21.33;;;;;;;8.55;80.20;101506.86;2177088;81;32977;-70
2022/11/27 12:05:08;;;;;;;34.00;21.30;;;;;;;8.53;80.08;101508.69;2178243;81;29489;-74
2022/11/27 12:12:32;;;;;;;35.30;21.12;;;;;;;8.55;80.21;101505.97;2077125;85;27718;-74
2022/11/27 12:16:11;;;;;;;34.70;21.00;;;;;;;8.57;80.08;101506.81;2060146;86;31122;-73
2022/11/27 12:20:01;;;;;;;31.25;21.37;;;;;;;8.57;80.13;101493.45;2059931;85;32986;-71
2022/11/27 12:23:48;;;;;;;34.13;21.65;;;;;;;8.53;79.75;101490.42;2063559;84;29355;-73
2022/11/27 12:27:03;;;;;;;36.20;21.80;;;;;;;8.48;80.01;101494.10;2098391;84;27737;-75
2022/11/27 12:30:16;;;;;;;34.05;21.82;;;;;;;8.40;79.39;101495.14;2082796;85;29499;-74
2022/11/27 12:33:32;;;;;;;32.70;19.12;;;;;;;8.31;79.64;101485.06;2082744;85;31043;-75
2022/11/27 12:36:59;;;;;;;34.05;20.15;;;;;;;8.27;79.36;101490.50;2082714;85;32948;-74
2022/11/27 12:40:27;;;;;;;28.42;18.70;;;;;;;8.15;79.30;101488.52;2082619;85;29361;-74
2022/11/27 12:43:39;;;;;;;35.20;22.00;;;;;;;8.10;79.60;101485.53;2082983;85;27726;-73
2022/11/27 12:47:00;;;;;;;38.50;22.52;;;;;;;8.08;79.84;101488.67;2082317;85;28669;-72
2022/11/27 12:50:10;;;;;;;33.20;19.98;;;;;;;8.09;79.90;101497.98;2081722;84;31097;-71
2022/11/27 12:53:36;;;;;;;33.05;21.75;;;;;;;8.09;79.80;101490.44;2012473;87;33183;-71
2022/11/27 12:56:47;;;;;;;34.53;20.50;;;;;;;8.09;79.89;101489.11;2036944;87;29357;-72
2022/11/27 12:59:57;;;;;;;33.55;21.73;;;;;;;8.06;79.97;101485.59;2047334;86;27739;-73
2022/11/27 13:03:19;;;;;;;33.63;20.30;;;;;;;8.08;79.93;101493.55;2047383;86;29563;-71
2022/11/27 13:06:23;;;;;;;35.03;22.05;;;;;;;8.09;80.10;101495.30;2013745;88;31035;-71
2022/11/27 13:09:51;;;;;;;36.90;22.25;;;;;;;8.10;80.22;101494.40;2003211;88;33010;-74
2022/11/27 13:13:22;;;;;;;31.62;21.82;;;;;;;8.10;80.21;101482.86;1997939;89;29525;-73
2022/11/27 13:16:52;;;;;;;35.90;21.37;;;;;;;8.12;80.27;101479.67;2041805;87;27720;-73
2022/11/27 13:19:53;;;;;;;38.90;22.48;;;;;;;8.09;80.11;101476.63;2065716;85;28665;-72
2022/11/27 13:22:54;;;;;;;34.83;22.60;;;;;;;8.06;80.19;101471.34;2065742;86;31019;-72
2022/11/27 13:25:56;;;;;;;32.28;21.85;;;;;;;8.04;80.08;101471.83;2060164;86;32937;-71
2022/11/27 13:29:25;;;;;;;36.70;22.50;;;;;;;7.96;79.87;101469.31;2064432;82;29398;-71
2022/11/27 13:32:32;;;;;;;35.55;23.32;;;;;;;7.93;80.15;101468.50;2146327;82;27748;-70
2022/11/27 13:35:42;;;;;;;38.95;25.45;;;;;;;7.91;79.97;101463.21;2146311;82;28655;-72
2022/11/27 13:38:44;;;;;;;38.53;25.62;;;;;;;7.86;80.11;101454.41;2145954;82;31038;-71
2022/11/27 13:41:47;;;;;;;43.48;25.60;;;;;;;7.81;80.09;101457.61;2146219;82;33915;-70
2022/11/27 13:44:55;;;;;;;38.80;25.00;;;;;;;7.69;79.71;101448.94;2146505;82;29339;-73
2022/11/27 13:48:00;;;;;;;39.18;23.98;;;;;;;7.60;79.95;101449.13;2146335;82;27601;-71
2022/11/27 13:51:02;;;;;;;43.60;24.50;;;;;;;7.52;79.92;101446.61;2145742;82;29471;-72
2022/11/27 13:54:17;;;;;;;41.85;26.12;;;;;;;7.48;80.30;101449.33;2144427;82;31034;-72
2022/11/27 13:57:20;;;;;;;45.05;27.80;;;;;;;7.44;80.40;101445.85;2144292;82;33900;-72
2022/11/27 14:00:32;;;;;;;48.20;28.77;;;;;;;7.39;80.36;101439.28;2144305;82;30127;-74
2022/11/27 14:03:35;;;;;;;43.65;27.15;;;;;;;7.36;80.50;101439.80;2143965;83;27713;-72
2022/11/27 14:06:38;;;;;;;46.15;28.92;;;;;;;7.30;80.60;101439.42;2144321;82;29547;-72
2022/11/27 14:09:52;;;;;;;48.45;28.87;;;;;;;7.27;80.68;101431.51;2144345;82;31018;-71
2022/11/27 14:13:03;;;;;;;45.80;27.50;;;;;;;7.26;80.79;101436.41;2144787;83;33651;-72
2022/11/27 14:16:27;;;;;;;46.45;28.17;;;;;;;7.24;80.86;101432.42;2121352;83;27745;-71
2022/11/27 14:19:36;;;;;;;45.60;26.68;;;;;;;7.14;80.76;101433.03;2144806;82;27723;-72
2022/11/27 14:22:49;;;;;;;39.50;25.52;;;;;;;7.09;80.87;101424.69;2144519;81;28769;-72